EKOD

Odense Airport

Odense, Denmark
METAR EKOD 101450Z 30016KT 9999 FEW027 SCT120 05/02 Q1006
Observed Flight Rules
Dec-10 @ 14:50 UTC (an hour ago) Visual Flight Rules
Wind Visibility Clouds
300° at 16 knots 10,000+ meters
  • Few at 2,700' AGL
  • Scattered at 12,000' AGL
Temperatures Readings
Current 5°C / 41°F
Dewpoint 2°C / 36°F
Humidity 81%
Altimeter 29.7" Hg
Pressure 1006 hPa
Elevation 17
METAR EKOD 101450Z 30016KT 9999 FEW027 SCT120 05/02 Q1006
Observed Flight Rules
Dec-10 @ 14:50 UTC
(an hour ago)
VFR
Wind Visibility
300° at 16 knots 10,000+ meters
Clouds
  • Few at 2,700' AGL
  • Scattered at 12,000' AGL
Temperature Dewpoint
5°C / 41°F 2°C / 36°F
Humidity Altimeter Pressure
81% 29.7" Hg 1006 hPa